sensor_id;sensor_type;location;lat;lon;timestamp;pressure;altitude;pressure_sealevel;temperature;humidity
5877;BME280;2964;42.144;24.730;2022-08-21T00:02:27;146667.22;;;20.56;100.00
5877;BME280;2964;42.144;24.730;2022-08-21T00:04:54;146717.88;;;20.76;100.00
5877;BME280;2964;42.144;24.730;2022-08-21T00:07:22;146729.28;;;20.81;100.00
5877;BME280;2964;42.144;24.730;2022-08-21T00:09:49;146711.56;;;20.74;100.00
5877;BME280;2964;42.144;24.730;2022-08-21T00:12:16;146643.19;;;20.46;100.00
5877;BME280;2964;42.144;24.730;2022-08-21T00:14:43;146667.22;;;20.56;100.00
5877;BME280;2964;42.144;24.730;2022-08-21T00:17:10;146759.66;;;20.93;100.00
5877;BME280;2964;42.144;24.730;2022-08-21T00:19:36;146653.28;;;20.50;100.00
5877;BME280;2964;42.144;24.730;2022-08-21T00:22:03;146683.72;;;20.62;100.00
5877;BME280;2964;42.144;24.730;2022-08-21T00:24:31;146631.78;;;20.41;100.00
5877;BME280;2964;42.144;24.730;2022-08-21T00:26:58;146624.22;;;20.38;100.00
5877;BME280;2964;42.144;24.730;2022-08-21T00:29:25;146701.47;;;20.70;100.00
5877;BME280;2964;42.144;24.730;2022-08-21T00:31:52;146650.78;;;20.49;100.00
5877;BME280;2964;42.144;24.730;2022-08-21T00:34:19;146690.03;;;20.65;100.00
5877;BME280;2964;42.144;24.730;2022-08-21T00:36:45;146686.25;;;20.63;100.00
5877;BME280;2964;42.144;24.730;2022-08-21T00:39:12;146653.28;;;20.50;100.00
5877;BME280;2964;42.144;24.730;2022-08-21T00:41:41;146663.41;;;20.54;100.00
5877;BME280;2964;42.144;24.730;2022-08-21T00:44:12;146648.22;;;20.48;100.00
5877;BME280;2964;42.144;24.730;2022-08-21T00:46:39;146711.56;;;20.74;100.00
5877;BME280;2964;42.144;24.730;2022-08-21T00:49:08;146747.03;;;20.88;100.00
5877;BME280;2964;42.144;24.730;2022-08-21T00:51:37;146752.06;;;20.90;100.00
5877;BME280;2964;42.144;24.730;2022-08-21T00:54:06;146648.22;;;20.48;100.00
5877;BME280;2964;42.144;24.730;2022-08-21T00:56:33;146576.09;;;20.19;100.00
5877;BME280;2964;42.144;24.730;2022-08-21T00:59:03;146673.56;;;20.58;100.00
5877;BME280;2964;42.144;24.730;2022-08-21T01:01:31;146669.75;;;20.57;100.00
5877;BME280;2964;42.144;24.730;2022-08-21T01:03:59;146658.34;;;20.52;100.00
5877;BME280;2964;42.144;24.730;2022-08-21T01:06:25;146617.84;;;20.36;100.00
5877;BME280;2964;42.144;24.730;2022-08-21T01:08:53;146592.56;;;20.25;100.00
5877;BME280;2964;42.144;24.730;2022-08-21T01:11:20;146617.84;;;20.36;100.00
5877;BME280;2964;42.144;24.730;2022-08-21T01:13:47;146628.00;;;20.40;100.00
5877;BME280;2964;42.144;24.730;2022-08-21T01:16:19;146619.16;;;20.36;100.00
5877;BME280;2964;42.144;24.730;2022-08-21T01:18:47;146696.41;;;20.68;100.00
5877;BME280;2964;42.144;24.730;2022-08-21T01:21:18;146653.28;;;20.50;100.00
5877;BME280;2964;42.144;24.730;2022-08-21T01:23:47;146639.38;;;20.44;100.00
5877;BME280;2964;42.144;24.730;2022-08-21T01:26:18;146721.69;;;20.78;100.00
5877;BME280;2964;42.144;24.730;2022-08-21T01:28:50;146663.41;;;20.54;100.00
5877;BME280;2964;42.144;24.730;2022-08-21T01:31:22;146683.72;;;20.62;100.00
5877;BME280;2964;42.144;24.730;2022-08-21T01:33:49;146709.00;;;20.73;100.00
5877;BME280;2964;42.144;24.730;2022-08-21T01:36:17;146754.59;;;20.91;100.00
5877;BME280;2964;42.144;24.730;2022-08-21T01:38:44;146788.78;;;21.05;100.00
5877;BME280;2964;42.144;24.730;2022-08-21T01:41:12;146750.81;;;20.90;100.00
5877;BME280;2964;42.144;24.730;2022-08-21T01:43:39;146716.63;;;20.76;100.00
5877;BME280;2964;42.144;24.730;2022-08-21T01:46:06;146711.56;;;20.74;100.00
5877;BME280;2964;42.144;24.730;2022-08-21T01:48:33;146659.66;;;20.53;100.00
5877;BME280;2964;42.144;24.730;2022-08-21T01:51:00;146630.50;;;20.41;100.00
5877;BME280;2964;42.144;24.730;2022-08-21T01:53:28;146652.03;;;20.50;100.00
5877;BME280;2964;42.144;24.730;2022-08-21T01:55:55;146640.63;;;20.45;100.00
5877;BME280;2964;42.144;24.730;2022-08-21T01:58:22;146702.72;;;20.70;100.00
5877;BME280;2964;42.144;24.730;2022-08-21T02:00:48;146669.75;;;20.57;100.00
5877;BME280;2964;42.144;24.730;2022-08-21T02:03:15;146690.03;;;20.65;100.00
5877;BME280;2964;42.144;24.730;2022-08-21T02:05:42;146668.47;;;20.56;100.00
5877;BME280;2964;42.144;24.730;2022-08-21T02:08:09;146686.25;;;20.63;100.00
5877;BME280;2964;42.144;24.730;2022-08-21T02:10:37;146640.63;;;20.45;100.00
5877;BME280;2964;42.144;24.730;2022-08-21T02:13:04;146743.22;;;20.87;100.00
5877;BME280;2964;42.144;24.730;2022-08-21T02:15:32;146797.66;;;21.09;100.00
5877;BME280;2964;42.144;24.730;2022-08-21T02:18:01;146764.75;;;20.95;100.00
5877;BME280;2964;42.144;24.730;2022-08-21T02:20:35;146750.81;;;20.90;100.00
5877;BME280;2964;42.144;24.730;2022-08-21T02:23:02;146730.53;;;20.81;100.00
5877;BME280;2964;42.144;24.730;2022-08-21T02:25:29;146741.97;;;20.86;100.00
5877;BME280;2964;42.144;24.730;2022-08-21T02:27:59;146716.63;;;20.76;100.00
5877;BME280;2964;42.144;24.730;2022-08-21T02:30:32;146762.19;;;20.94;100.00
5877;BME280;2964;42.144;24.730;2022-08-21T02:32:59;146777.38;;;21.00;100.00
5877;BME280;2964;42.144;24.730;2022-08-21T02:35:27;146760.94;;;20.94;100.00
5877;BME280;2964;42.144;24.730;2022-08-21T02:37:56;146725.50;;;20.79;100.00
5877;BME280;2964;42.144;24.730;2022-08-21T02:40:26;146714.06;;;20.75;100.00
5877;BME280;2964;42.144;24.730;2022-08-21T02:42:53;146696.41;;;20.68;100.00
5877;BME280;2964;42.144;24.730;2022-08-21T02:45:21;146677.31;;;20.60;100.00
5877;BME280;2964;42.144;24.730;2022-08-21T02:47:49;146703.97;;;20.71;100.00
5877;BME280;2964;42.144;24.730;2022-08-21T02:50:19;146682.47;;;20.62;100.00
5877;BME280;2964;42.144;24.730;2022-08-21T02:52:46;146714.06;;;20.75;100.00
5877;BME280;2964;42.144;24.730;2022-08-21T02:55:13;146726.75;;;20.80;100.00
5877;BME280;2964;42.144;24.730;2022-08-21T02:57:40;146764.75;;;20.95;100.00
5877;BME280;2964;42.144;24.730;2022-08-21T03:00:08;146790.03;;;21.06;100.00
5877;BME280;2964;42.144;24.730;2022-08-21T03:02:37;146669.75;;;20.57;100.00
5877;BME280;2964;42.144;24.730;2022-08-21T03:05:05;146710.31;;;20.73;100.00
5877;BME280;2964;42.144;24.730;2022-08-21T03:07:32;146734.34;;;20.83;100.00
5877;BME280;2964;42.144;24.730;2022-08-21T03:09:59;146739.41;;;20.85;100.00
5877;BME280;2964;42.144;24.730;2022-08-21T03:12:25;146772.31;;;20.98;100.00
5877;BME280;2964;42.144;24.730;2022-08-21T03:14:52;146795.09;;;21.08;100.00
5877;BME280;2964;42.144;24.730;2022-08-21T03:17:19;146797.66;;;21.09;100.00
5877;BME280;2964;42.144;24.730;2022-08-21T03:19:47;146762.19;;;20.94;100.00
5877;BME280;2964;42.144;24.730;2022-08-21T03:22:14;146728.03;;;20.80;100.00
5877;BME280;2964;42.144;24.730;2022-08-21T03:24:40;146678.66;;;20.60;100.00
5877;BME280;2964;42.144;24.730;2022-08-21T03:27:08;146691.28;;;20.66;100.00
5877;BME280;2964;42.144;24.730;2022-08-21T03:29:34;146640.63;;;20.45;100.00
5877;BME280;2964;42.144;24.730;2022-08-21T03:32:01;146659.66;;;20.53;100.00
5877;BME280;2964;42.144;24.730;2022-08-21T03:34:28;146686.25;;;20.63;100.00
5877;BME280;2964;42.144;24.730;2022-08-21T03:36:56;146698.91;;;20.69;100.00
5877;BME280;2964;42.144;24.730;2022-08-21T03:39:23;146683.72;;;20.62;100.00
5877;BME280;2964;42.144;24.730;2022-08-21T03:41:49;146641.94;;;20.46;100.00
5877;BME280;2964;42.144;24.730;2022-08-21T03:44:17;146668.47;;;20.56;100.00
5877;BME280;2964;42.144;24.730;2022-08-21T03:46:44;146644.44;;;20.47;100.00
5877;BME280;2964;42.144;24.730;2022-08-21T03:49:11;146711.56;;;20.74;100.00
5877;BME280;2964;42.144;24.730;2022-08-21T03:51:38;146731.81;;;20.82;100.00
5877;BME280;2964;42.144;24.730;2022-08-21T03:54:06;146593.81;;;20.26;100.00
5877;BME280;2964;42.144;24.730;2022-08-21T03:56:33;146683.72;;;20.62;100.00
5877;BME280;2964;42.144;24.730;2022-08-21T03:59:00;146683.72;;;20.62;100.00
5877;BME280;2964;42.144;24.730;2022-08-21T04:01:27;146635.56;;;20.43;100.00
5877;BME280;2964;42.144;24.730;2022-08-21T04:03:54;146652.03;;;20.50;100.00
5877;BME280;2964;42.144;24.730;2022-08-21T04:06:20;146612.78;;;20.34;100.00
5877;BME280;2964;42.144;24.730;2022-08-21T04:08:47;146636.81;;;20.43;100.00
5877;BME280;2964;42.144;24.730;2022-08-21T04:11:15;146562.19;;;20.13;100.00
5877;BME280;2964;42.144;24.730;2022-08-21T04:13:42;146612.78;;;20.34;100.00
5877;BME280;2964;42.144;24.730;2022-08-21T04:16:09;146665.97;;;20.55;100.00
5877;BME280;2964;42.144;24.730;2022-08-21T04:18:35;146683.72;;;20.62;100.00
5877;BME280;2964;42.144;24.730;2022-08-21T04:21:03;146686.25;;;20.63;100.00
5877;BME280;2964;42.144;24.730;2022-08-21T04:23:30;146645.69;;;20.47;100.00
5877;BME280;2964;42.144;24.730;2022-08-21T04:25:57;146588.78;;;20.24;100.00
5877;BME280;2964;42.144;24.730;2022-08-21T04:28:26;146603.94;;;20.30;100.00
5877;BME280;2964;42.144;24.730;2022-08-21T04:30:54;146612.78;;;20.34;100.00
5877;BME280;2964;42.144;24.730;2022-08-21T04:33:21;146598.88;;;20.28;100.00
5877;BME280;2964;42.144;24.730;2022-08-21T04:35:49;146615.34;;;20.35;100.00
5877;BME280;2964;42.144;24.730;2022-08-21T04:38:16;146660.91;;;20.53;100.00
5877;BME280;2964;42.144;24.730;2022-08-21T04:40:43;146695.09;;;20.67;100.00
5877;BME280;2964;42.144;24.730;2022-08-21T04:43:11;146633.06;;;20.42;100.00
5877;BME280;2964;42.144;24.730;2022-08-21T04:45:41;146531.81;;;20.01;100.00
5877;BME280;2964;42.144;24.730;2022-08-21T04:48:10;146581.16;;;20.21;100.00
5877;BME280;2964;42.144;24.730;2022-08-21T04:50:43;146663.41;;;20.54;100.00
5877;BME280;2964;42.144;24.730;2022-08-21T04:53:15;146631.78;;;20.41;100.00
5877;BME280;2964;42.144;24.730;2022-08-21T04:55:43;146606.50;;;20.31;100.00
5877;BME280;2964;42.144;24.730;2022-08-21T04:58:11;146579.91;;;20.20;100.00
5877;BME280;2964;42.144;24.730;2022-08-21T05:00:40;146520.44;;;19.96;100.00
5877;BME280;2964;42.144;24.730;2022-08-21T05:03:08;146568.50;;;20.16;100.00
5877;BME280;2964;42.144;24.730;2022-08-21T05:05:36;146644.44;;;20.47;100.00
5877;BME280;2964;42.144;24.730;2022-08-21T05:08:03;146598.88;;;20.28;100.00
5877;BME280;2964;42.144;24.730;2022-08-21T05:10:31;146562.19;;;20.13;100.00
5877;BME280;2964;42.144;24.730;2022-08-21T05:12:58;146568.50;;;20.16;100.00
5877;BME280;2964;42.144;24.730;2022-08-21T05:15:26;146559.69;;;20.12;100.00
5877;BME280;2964;42.144;24.730;2022-08-21T05:17:54;146574.84;;;20.18;100.00
5877;BME280;2964;42.144;24.730;2022-08-21T05:20:21;146509.03;;;19.92;100.00
5877;BME280;2964;42.144;24.730;2022-08-21T05:22:48;146610.28;;;20.33;100.00
5877;BME280;2964;42.144;24.730;2022-08-21T05:25:16;146574.84;;;20.18;100.00
5877;BME280;2964;42.144;24.730;2022-08-21T05:27:43;146645.69;;;20.47;100.00
5877;BME280;2964;42.144;24.730;2022-08-21T05:30:19;146584.97;;;20.22;100.00
5877;BME280;2964;42.144;24.730;2022-08-21T05:32:49;146691.28;;;20.66;100.00
5877;BME280;2964;42.144;24.730;2022-08-21T05:35:17;146719.19;;;20.77;100.00
5877;BME280;2964;42.144;24.730;2022-08-21T05:37:44;146633.06;;;20.42;100.00
5877;BME280;2964;42.144;24.730;2022-08-21T05:40:11;146592.56;;;20.25;100.00
5877;BME280;2964;42.144;24.730;2022-08-21T05:42:39;146619.16;;;20.36;100.00
5877;BME280;2964;42.144;24.730;2022-08-21T05:45:06;146581.16;;;20.21;100.00
5877;BME280;2964;42.144;24.730;2022-08-21T05:47:33;146630.50;;;20.41;100.00
5877;BME280;2964;42.144;24.730;2022-08-21T05:50:00;146700.16;;;20.69;100.00
5877;BME280;2964;42.144;24.730;2022-08-21T05:52:28;146769.81;;;20.97;100.00
5877;BME280;2964;42.144;24.730;2022-08-21T05:55:25;146648.22;;;20.48;100.00
5877;BME280;2964;42.144;24.730;2022-08-21T05:58:06;146790.03;;;21.06;100.00
5877;BME280;2964;42.144;24.730;2022-08-21T06:00:33;146721.69;;;20.78;100.00
5877;BME280;2964;42.144;24.730;2022-08-21T06:03:00;146721.69;;;20.78;100.00
5877;BME280;2964;42.144;24.730;2022-08-21T06:05:26;146697.66;;;20.68;100.00
5877;BME280;2964;42.144;24.730;2022-08-21T06:07:55;146681.19;;;20.61;100.00
5877;BME280;2964;42.144;24.730;2022-08-21T06:10:21;146739.41;;;20.85;100.00
5877;BME280;2964;42.144;24.730;2022-08-21T06:12:52;146735.59;;;20.83;100.00
5877;BME280;2964;42.144;24.730;2022-08-21T06:15:20;146701.47;;;20.70;100.00
5877;BME280;2964;42.144;24.730;2022-08-21T06:17:47;146719.19;;;20.77;100.00
5877;BME280;2964;42.144;24.730;2022-08-21T06:20:14;146695.09;;;20.67;100.00
5877;BME280;2964;42.144;24.730;2022-08-21T06:22:40;146757.13;;;20.92;100.00
5877;BME280;2964;42.144;24.730;2022-08-21T06:25:09;146772.31;;;20.98;100.00
5877;BME280;2964;42.144;24.730;2022-08-21T06:27:35;146803.97;;;21.11;100.00
5877;BME280;2964;42.144;24.730;2022-08-21T06:30:03;146740.66;;;20.86;100.00
5877;BME280;2964;42.144;24.730;2022-08-21T06:32:30;146800.16;;;21.10;100.00
5877;BME280;2964;42.144;24.730;2022-08-21T06:34:57;146847.03;;;21.29;100.00
5877;BME280;2964;42.144;24.730;2022-08-21T06:37:23;146791.28;;;21.06;100.00
5877;BME280;2964;42.144;24.730;2022-08-21T06:39:50;146876.16;;;21.40;100.00
5877;BME280;2964;42.144;24.730;2022-08-21T06:42:18;146902.78;;;21.51;100.00
5877;BME280;2964;42.144;24.730;2022-08-21T06:44:45;146896.47;;;21.49;100.00
5877;BME280;2964;42.144;24.730;2022-08-21T06:47:13;146866.03;;;21.36;100.00
5877;BME280;2964;42.144;24.730;2022-08-21T06:49:40;146817.88;;;21.17;100.00
5877;BME280;2964;42.144;24.730;2022-08-21T06:52:09;146843.22;;;21.27;100.00
5877;BME280;2964;42.144;24.730;2022-08-21T06:54:36;146829.31;;;21.21;100.00
5877;BME280;2964;42.144;24.730;2022-08-21T06:57:04;146665.97;;;20.55;100.00
5877;BME280;2964;42.144;24.730;2022-08-21T06:59:32;146809.03;;;21.13;100.00
5877;BME280;2964;42.144;24.730;2022-08-21T07:01:59;146905.28;;;21.52;100.00
5877;BME280;2964;42.144;24.730;2022-08-21T07:04:26;146929.41;;;21.62;100.00
5877;BME280;2964;42.144;24.730;2022-08-21T07:06:53;146893.94;;;21.48;100.00
5877;BME280;2964;42.144;24.730;2022-08-21T07:09:23;146939.53;;;21.66;100.00
5877;BME280;2964;42.144;24.730;2022-08-21T07:11:53;146909.09;;;21.54;100.00
5877;BME280;2964;42.144;24.730;2022-08-21T07:14:21;146997.78;;;21.90;100.00
5877;BME280;2964;42.144;24.730;2022-08-21T07:16:49;147028.16;;;22.02;100.00
5877;BME280;2964;42.144;24.730;2022-08-21T07:19:17;147078.88;;;22.23;100.00
5877;BME280;2964;42.144;24.730;2022-08-21T07:21:49;147106.78;;;22.34;100.00
5877;BME280;2964;42.144;24.730;2022-08-21T07:24:16;147176.47;;;22.62;100.00
5877;BME280;2964;42.144;24.730;2022-08-21T07:26:49;147168.88;;;22.59;100.00
5877;BME280;2964;42.144;24.730;2022-08-21T07:29:16;147162.53;;;22.57;100.00
5877;BME280;2964;42.144;24.730;2022-08-21T07:35:09;147285.53;;;23.06;100.00
5877;BME280;2964;42.144;24.730;2022-08-21T07:37:36;147347.69;;;23.31;100.00
5877;BME280;2964;42.144;24.730;2022-08-21T07:40:09;147271.56;;;23.01;100.00
5877;BME280;2964;42.144;24.730;2022-08-21T07:42:40;147291.88;;;23.09;100.00
5877;BME280;2964;42.144;24.730;2022-08-21T07:45:08;147261.41;;;22.97;100.00
5877;BME280;2964;42.144;24.730;2022-08-21T07:47:34;147331.19;;;23.25;100.00
5877;BME280;2964;42.144;24.730;2022-08-21T07:50:01;147200.56;;;22.72;100.00
5877;BME280;2964;42.144;24.730;2022-08-21T07:52:29;147203.09;;;22.73;100.00
5877;BME280;2964;42.144;24.730;2022-08-21T07:54:57;147167.59;;;22.59;100.00
5877;BME280;2964;42.144;24.730;2022-08-21T07:57:24;147258.88;;;22.96;100.00
5877;BME280;2964;42.144;24.730;2022-08-21T07:59:51;147122.00;;;22.40;100.00
5877;BME280;2964;42.144;24.730;2022-08-21T08:02:23;147116.94;;;22.38;100.00
5877;BME280;2964;42.144;24.730;2022-08-21T08:04:49;147220.84;;;22.80;100.00
5877;BME280;2964;42.144;24.730;2022-08-21T08:07:16;147256.34;;;22.94;100.00
5877;BME280;2964;42.144;24.730;2022-08-21T08:09:45;147182.81;;;22.65;100.00
5877;BME280;2964;42.144;24.730;2022-08-21T08:12:12;147237.31;;;22.87;100.00
5877;BME280;2964;42.144;24.730;2022-08-21T08:14:38;147284.28;;;23.06;100.00
5877;BME280;2964;42.144;24.730;2022-08-21T08:17:05;147288.09;;;23.07;100.00
5877;BME280;2964;42.144;24.730;2022-08-21T08:19:32;146993.97;;;21.88;100.00
5877;BME280;2964;42.144;24.730;2022-08-21T08:21:59;147359.06;;;23.36;100.00
5877;BME280;2964;42.144;24.730;2022-08-21T08:24:26;147214.50;;;22.78;100.00
5877;BME280;2964;42.144;24.730;2022-08-21T08:26:55;147233.53;;;22.85;100.00
5877;BME280;2964;42.144;24.730;2022-08-21T08:29:22;147192.97;;;22.69;100.00
5877;BME280;2964;42.144;24.730;2022-08-21T08:31:50;147230.97;;;22.84;100.00
5877;BME280;2964;42.144;24.730;2022-08-21T08:34:17;147115.66;;;22.38;100.00
5877;BME280;2964;42.144;24.730;2022-08-21T08:36:45;147243.66;;;22.89;100.00
5877;BME280;2964;42.144;24.730;2022-08-21T08:39:12;147238.59;;;22.87;100.00
5877;BME280;2964;42.144;24.730;2022-08-21T08:41:40;147243.66;;;22.89;100.00
5877;BME280;2964;42.144;24.730;2022-08-21T08:44:11;147203.09;;;22.73;100.00
5877;BME280;2964;42.144;24.730;2022-08-21T08:46:43;147269.00;;;23.00;100.00
5877;BME280;2964;42.144;24.730;2022-08-21T08:49:13;147244.94;;;22.90;100.00
5877;BME280;2964;42.144;24.730;2022-08-21T08:51:47;147253.81;;;22.93;100.00
5877;BME280;2964;42.144;24.730;2022-08-21T08:54:20;147263.94;;;22.98;100.00
5877;BME280;2964;42.144;24.730;2022-08-21T08:56:50;147138.47;;;22.47;100.00
5877;BME280;2964;42.144;24.730;2022-08-21T08:59:22;147250.00;;;22.92;100.00
5877;BME280;2964;42.144;24.730;2022-08-21T09:01:49;147195.47;;;22.70;100.00
5877;BME280;2964;42.144;24.730;2022-08-21T09:04:21;147309.63;;;23.16;100.00
5877;BME280;2964;42.144;24.730;2022-08-21T09:07:09;147342.63;;;23.29;100.00
5877;BME280;2964;42.144;24.730;2022-08-21T09:09:48;147394.59;;;23.50;100.00
5877;BME280;2964;42.144;24.730;2022-08-21T09:12:28;147459.25;;;23.77;100.00
5877;BME280;2964;42.144;24.730;2022-08-21T09:15:06;147274.06;;;23.02;100.00
5877;BME280;2964;42.144;24.730;2022-08-21T09:18:01;147425.03;;;23.63;99.69
5877;BME280;2964;42.144;24.730;2022-08-21T09:20:37;147286.78;;;23.07;100.00
5877;BME280;2964;42.144;24.730;2022-08-21T09:23:13;147367.94;;;23.40;100.00
5877;BME280;2964;42.144;24.730;2022-08-21T09:25:52;147333.75;;;23.26;100.00
5877;BME280;2964;42.144;24.730;2022-08-21T09:28:22;147262.69;;;22.97;100.00
5877;BME280;2964;42.144;24.730;2022-08-21T09:30:50;147187.91;;;22.67;100.00
5877;BME280;2964;42.144;24.730;2022-08-21T09:33:20;147333.75;;;23.26;100.00
5877;BME280;2964;42.144;24.730;2022-08-21T09:35:52;147423.72;;;23.62;100.00
5877;BME280;2964;42.144;24.730;2022-08-21T09:38:26;147479.63;;;23.85;98.30
5877;BME280;2964;42.144;24.730;2022-08-21T09:40:58;147484.69;;;23.87;97.10
5877;BME280;2964;42.144;24.730;2022-08-21T09:43:25;147440.25;;;23.69;98.47
5877;BME280;2964;42.144;24.730;2022-08-21T09:46:05;147422.47;;;23.62;98.77
5877;BME280;2964;42.144;24.730;2022-08-21T09:48:44;147479.63;;;23.85;98.20
5877;BME280;2964;42.144;24.730;2022-08-21T09:51:14;147461.81;;;23.78;98.50
5877;BME280;2964;42.144;24.730;2022-08-21T09:53:45;147489.75;;;23.89;98.51
5877;BME280;2964;42.144;24.730;2022-08-21T09:56:21;147452.94;;;23.74;99.01
5877;BME280;2964;42.144;24.730;2022-08-21T09:59:15;147516.41;;;24.00;99.20
5877;BME280;2964;42.144;24.730;2022-08-21T10:01:46;147578.53;;;24.25;97.70
5877;BME280;2964;42.144;24.730;2022-08-21T10:04:14;147578.53;;;24.25;97.52
5877;BME280;2964;42.144;24.730;2022-08-21T10:06:41;147451.63;;;23.74;99.45
5877;BME280;2964;42.144;24.730;2022-08-21T10:09:11;147335.00;;;23.26;100.00
5877;BME280;2964;42.144;24.730;2022-08-21T10:11:38;147324.88;;;23.22;100.00
5877;BME280;2964;42.144;24.730;2022-08-21T10:14:14;147329.94;;;23.24;100.00
5877;BME280;2964;42.144;24.730;2022-08-21T10:16:51;147405.97;;;23.55;100.00
5877;BME280;2964;42.144;24.730;2022-08-21T10:19:28;147416.16;;;23.59;100.00
5877;BME280;2964;42.144;24.730;2022-08-21T10:22:02;147466.94;;;23.80;100.00
5877;BME280;2964;42.144;24.730;2022-08-21T10:24:41;147534.19;;;24.07;99.15
5877;BME280;2964;42.144;24.730;2022-08-21T10:27:21;147600.13;;;24.34;96.66
5877;BME280;2964;42.144;24.730;2022-08-21T10:29:56;147593.78;;;24.31;97.02
5877;BME280;2964;42.144;24.730;2022-08-21T10:32:38;147595.06;;;24.32;96.41
5877;BME280;2964;42.144;24.730;2022-08-21T10:35:12;147614.06;;;24.39;95.94
5877;BME280;2964;42.144;24.730;2022-08-21T10:37:52;147461.81;;;23.78;98.67
5877;BME280;2964;42.144;24.730;2022-08-21T10:40:26;147525.28;;;24.03;98.33
5877;BME280;2964;42.144;24.730;2022-08-21T10:43:02;147499.91;;;23.93;99.48
5877;BME280;2964;42.144;24.730;2022-08-21T10:45:42;147507.53;;;23.96;99.94
5877;BME280;2964;42.144;24.730;2022-08-21T10:48:21;147483.38;;;23.86;100.00
5877;BME280;2964;42.144;24.730;2022-08-21T10:50:52;147546.81;;;24.12;98.95
5877;BME280;2964;42.144;24.730;2022-08-21T10:53:36;147584.91;;;24.27;98.30
5877;BME280;2964;42.144;24.730;2022-08-21T10:56:13;147588.72;;;24.29;97.46
5877;BME280;2964;42.144;24.730;2022-08-21T10:58:46;147588.72;;;24.29;97.40
5877;BME280;2964;42.144;24.730;2022-08-21T11:01:20;147615.34;;;24.40;96.29
5877;BME280;2964;42.144;24.730;2022-08-21T11:03:54;147499.91;;;23.93;99.87
5877;BME280;2964;42.144;24.730;2022-08-21T11:06:27;147487.22;;;23.88;100.00
5877;BME280;2964;42.144;24.730;2022-08-21T11:08:58;147474.50;;;23.83;100.00
5877;BME280;2964;42.144;24.730;2022-08-21T11:11:35;147425.03;;;23.63;100.00
5877;BME280;2964;42.144;24.730;2022-08-21T11:14:09;147198.03;;;22.71;100.00
5877;BME280;2964;42.144;24.730;2022-08-21T11:16:41;147239.84;;;22.88;100.00
5877;BME280;2964;42.144;24.730;2022-08-21T11:19:13;147315.97;;;23.19;100.00
5877;BME280;2964;42.144;24.730;2022-08-21T11:21:45;147333.75;;;23.26;100.00
5877;BME280;2964;42.144;24.730;2022-08-21T11:24:21;147484.69;;;23.87;100.00
5877;BME280;2964;42.144;24.730;2022-08-21T11:26:56;147512.59;;;23.98;100.00
5877;BME280;2964;42.144;24.730;2022-08-21T11:29:28;147501.16;;;23.94;99.36
5877;BME280;2964;42.144;24.730;2022-08-21T11:32:08;147521.47;;;24.02;98.97
5877;BME280;2964;42.144;24.730;2022-08-21T11:34:54;147437.69;;;23.68;100.00
5877;BME280;2964;42.144;24.730;2022-08-21T11:37:46;147559.53;;;24.17;97.42
5877;BME280;2964;42.144;24.730;2022-08-21T11:40:24;147548.13;;;24.13;97.27
5877;BME280;2964;42.144;24.730;2022-08-21T11:43:02;147507.53;;;23.96;99.24
5877;BME280;2964;42.144;24.730;2022-08-21T11:45:39;147502.47;;;23.94;97.53
5877;BME280;2964;42.144;24.730;2022-08-21T11:48:15;147526.56;;;24.04;97.96
5877;BME280;2964;42.144;24.730;2022-08-21T11:50:50;147504.97;;;23.95;97.41
5877;BME280;2964;42.144;24.730;2022-08-21T11:53:22;147568.41;;;24.21;97.49
5877;BME280;2964;42.144;24.730;2022-08-21T11:55:55;147521.47;;;24.02;98.74
5877;BME280;2964;42.144;24.730;2022-08-21T11:58:25;147554.44;;;24.15;100.00
5877;BME280;2964;42.144;24.730;2022-08-21T12:00:58;147456.75;;;23.76;100.00
5877;BME280;2964;42.144;24.730;2022-08-21T12:03:29;147397.09;;;23.51;100.00
5877;BME280;2964;42.144;24.730;2022-08-21T12:06:01;147488.50;;;23.88;100.00
5877;BME280;2964;42.144;24.730;2022-08-21T12:08:32;147441.50;;;23.69;100.00
5877;BME280;2964;42.144;24.730;2022-08-21T12:11:03;147532.88;;;24.06;100.00
5877;BME280;2964;42.144;24.730;2022-08-21T12:13:33;147436.44;;;23.67;100.00
5877;BME280;2964;42.144;24.730;2022-08-21T12:16:08;147508.78;;;23.97;100.00
5877;BME280;2964;42.144;24.730;2022-08-21T12:18:35;147384.44;;;23.46;100.00
5877;BME280;2964;42.144;24.730;2022-08-21T12:21:17;147350.19;;;23.32;100.00
5877;BME280;2964;42.144;24.730;2022-08-21T12:23:48;147452.94;;;23.74;100.00
5877;BME280;2964;42.144;24.730;2022-08-21T12:26:24;147418.66;;;23.60;100.00
5877;BME280;2964;42.144;24.730;2022-08-21T12:28:51;147437.69;;;23.68;100.00
5877;BME280;2964;42.144;24.730;2022-08-21T12:31:29;147335.00;;;23.26;100.00
5877;BME280;2964;42.144;24.730;2022-08-21T12:33:58;147405.97;;;23.55;100.00
5877;BME280;2964;42.144;24.730;2022-08-21T12:36:36;147398.41;;;23.52;100.00
5877;BME280;2964;42.144;24.730;2022-08-21T12:39:11;147313.44;;;23.18;100.00
5877;BME280;2964;42.144;24.730;2022-08-21T12:41:48;147295.69;;;23.10;100.00
5877;BME280;2964;42.144;24.730;2022-08-21T12:44:22;147390.78;;;23.49;100.00
5877;BME280;2964;42.144;24.730;2022-08-21T12:46:56;147385.72;;;23.47;100.00
5877;BME280;2964;42.144;24.730;2022-08-21T12:49:28;147422.47;;;23.62;100.00
5877;BME280;2964;42.144;24.730;2022-08-21T12:52:03;147357.81;;;23.36;100.00
5877;BME280;2964;42.144;24.730;2022-08-21T12:54:38;147352.75;;;23.34;100.00
5877;BME280;2964;42.144;24.730;2022-08-21T12:57:06;147455.44;;;23.75;100.00
5877;BME280;2964;42.144;24.730;2022-08-21T12:59:37;147432.63;;;23.66;100.00
5877;BME280;2964;42.144;24.730;2022-08-21T13:02:13;147527.81;;;24.04;100.00
5877;BME280;2964;42.144;24.730;2022-08-21T13:04:42;147549.38;;;24.13;98.29
5877;BME280;2964;42.144;24.730;2022-08-21T13:07:13;147596.31;;;24.32;98.75
5877;BME280;2964;42.144;24.730;2022-08-21T13:09:46;147548.13;;;24.13;97.58